sensor_id;sensor_type;location;lat;lon;timestamp;P1;durP1;ratioP1;P2;durP2;ratioP2
12122;SDS011;6125;59.628;17.852;2024-01-16T00:02:09;0.63;;;0.53;;
12122;SDS011;6125;59.628;17.852;2024-01-16T00:04:38;0.23;;;0.23;;
12122;SDS011;6125;59.628;17.852;2024-01-16T00:07:06;0.30;;;0.30;;
12122;SDS011;6125;59.628;17.852;2024-01-16T00:09:33;0.30;;;0.30;;
12122;SDS011;6125;59.628;17.852;2024-01-16T00:12:01;0.63;;;0.40;;
12122;SDS011;6125;59.628;17.852;2024-01-16T00:14:29;1.47;;;0.60;;
12122;SDS011;6125;59.628;17.852;2024-01-16T00:16:56;0.27;;;0.27;;
12122;SDS011;6125;59.628;17.852;2024-01-16T00:19:23;1.30;;;0.53;;
12122;SDS011;6125;59.628;17.852;2024-01-16T00:21:51;0.67;;;0.50;;
12122;SDS011;6125;59.628;17.852;2024-01-16T00:24:19;0.40;;;0.40;;
12122;SDS011;6125;59.628;17.852;2024-01-16T00:26:46;0.30;;;0.20;;
12122;SDS011;6125;59.628;17.852;2024-01-16T00:29:15;0.77;;;0.37;;
12122;SDS011;6125;59.628;17.852;2024-01-16T00:31:42;0.30;;;0.30;;
12122;SDS011;6125;59.628;17.852;2024-01-16T00:34:09;0.40;;;0.40;;
12122;SDS011;6125;59.628;17.852;2024-01-16T00:36:36;0.30;;;0.30;;
12122;SDS011;6125;59.628;17.852;2024-01-16T00:39:05;1.30;;;0.53;;
12122;SDS011;6125;59.628;17.852;2024-01-16T00:41:32;0.37;;;0.37;;
12122;SDS011;6125;59.628;17.852;2024-01-16T00:43:59;0.47;;;0.30;;
12122;SDS011;6125;59.628;17.852;2024-01-16T00:46:27;0.47;;;0.47;;
12122;SDS011;6125;59.628;17.852;2024-01-16T00:48:54;0.50;;;0.40;;
12122;SDS011;6125;59.628;17.852;2024-01-16T00:51:21;0.30;;;0.10;;
12122;SDS011;6125;59.628;17.852;2024-01-16T00:53:48;0.20;;;0.20;;
12122;SDS011;6125;59.628;17.852;2024-01-16T00:56:17;3.20;;;0.70;;
12122;SDS011;6125;59.628;17.852;2024-01-16T00:58:43;3.17;;;0.90;;
12122;SDS011;6125;59.628;17.852;2024-01-16T01:01:10;0.43;;;0.40;;
12122;SDS011;6125;59.628;17.852;2024-01-16T01:03:37;0.57;;;0.57;;
12122;SDS011;6125;59.628;17.852;2024-01-16T01:06:05;1.03;;;0.57;;
12122;SDS011;6125;59.628;17.852;2024-01-16T01:08:32;0.20;;;0.20;;
12122;SDS011;6125;59.628;17.852;2024-01-16T01:11:00;0.80;;;0.40;;
12122;SDS011;6125;59.628;17.852;2024-01-16T01:13:29;0.57;;;0.57;;
12122;SDS011;6125;59.628;17.852;2024-01-16T01:15:56;0.27;;;0.27;;
12122;SDS011;6125;59.628;17.852;2024-01-16T01:18:24;0.60;;;0.60;;
12122;SDS011;6125;59.628;17.852;2024-01-16T01:20:51;0.30;;;0.30;;
12122;SDS011;6125;59.628;17.852;2024-01-16T01:23:18;0.43;;;0.33;;
12122;SDS011;6125;59.628;17.852;2024-01-16T01:25:45;0.20;;;0.20;;
12122;SDS011;6125;59.628;17.852;2024-01-16T01:28:12;0.00;;;0.00;;
12122;SDS011;6125;59.628;17.852;2024-01-16T01:30:41;0.20;;;0.20;;
12122;SDS011;6125;59.628;17.852;2024-01-16T01:33:08;0.60;;;0.30;;
12122;SDS011;6125;59.628;17.852;2024-01-16T01:35:37;0.40;;;0.40;;
12122;SDS011;6125;59.628;17.852;2024-01-16T01:38:04;0.17;;;0.13;;
12122;SDS011;6125;59.628;17.852;2024-01-16T01:40:32;0.30;;;0.30;;
12122;SDS011;6125;59.628;17.852;2024-01-16T01:45:56;1.37;;;0.50;;
12122;SDS011;6125;59.628;17.852;2024-01-16T01:48:34;0.57;;;0.30;;
12122;SDS011;6125;59.628;17.852;2024-01-16T01:51:02;0.00;;;0.00;;
12122;SDS011;6125;59.628;17.852;2024-01-16T01:53:30;0.27;;;0.27;;
12122;SDS011;6125;59.628;17.852;2024-01-16T01:55:58;0.50;;;0.30;;
12122;SDS011;6125;59.628;17.852;2024-01-16T01:58:28;0.30;;;0.30;;
12122;SDS011;6125;59.628;17.852;2024-01-16T02:00:57;0.60;;;0.30;;
12122;SDS011;6125;59.628;17.852;2024-01-16T02:03:25;0.40;;;0.40;;
12122;SDS011;6125;59.628;17.852;2024-01-16T02:05:55;0.30;;;0.30;;
12122;SDS011;6125;59.628;17.852;2024-01-16T02:08:22;0.17;;;0.17;;
12122;SDS011;6125;59.628;17.852;2024-01-16T02:10:49;1.23;;;0.30;;
12122;SDS011;6125;59.628;17.852;2024-01-16T02:13:18;0.37;;;0.37;;
12122;SDS011;6125;59.628;17.852;2024-01-16T02:15:48;1.20;;;0.30;;
12122;SDS011;6125;59.628;17.852;2024-01-16T02:18:17;0.10;;;0.10;;
12122;SDS011;6125;59.628;17.852;2024-01-16T02:20:45;0.00;;;0.00;;
12122;SDS011;6125;59.628;17.852;2024-01-16T02:23:13;0.17;;;0.17;;
12122;SDS011;6125;59.628;17.852;2024-01-16T02:25:43;0.20;;;0.20;;
12122;SDS011;6125;59.628;17.852;2024-01-16T02:28:10;0.13;;;0.13;;
12122;SDS011;6125;59.628;17.852;2024-01-16T02:30:38;0.10;;;0.10;;
12122;SDS011;6125;59.628;17.852;2024-01-16T02:33:06;0.20;;;0.20;;
12122;SDS011;6125;59.628;17.852;2024-01-16T02:35:33;0.23;;;0.20;;
12122;SDS011;6125;59.628;17.852;2024-01-16T02:38:00;0.90;;;0.60;;
12122;SDS011;6125;59.628;17.852;2024-01-16T02:40:27;0.97;;;0.30;;
12122;SDS011;6125;59.628;17.852;2024-01-16T02:42:56;0.30;;;0.30;;
12122;SDS011;6125;59.628;17.852;2024-01-16T02:45:23;0.10;;;0.10;;
12122;SDS011;6125;59.628;17.852;2024-01-16T02:47:51;0.10;;;0.10;;
12122;SDS011;6125;59.628;17.852;2024-01-16T02:50:18;0.10;;;0.10;;
12122;SDS011;6125;59.628;17.852;2024-01-16T02:52:46;0.00;;;0.00;;
12122;SDS011;6125;59.628;17.852;2024-01-16T02:55:13;0.17;;;0.17;;
12122;SDS011;6125;59.628;17.852;2024-01-16T02:57:41;0.10;;;0.10;;
12122;SDS011;6125;59.628;17.852;2024-01-16T03:00:10;0.13;;;0.13;;
12122;SDS011;6125;59.628;17.852;2024-01-16T03:02:39;0.17;;;0.17;;
12122;SDS011;6125;59.628;17.852;2024-01-16T03:05:06;0.40;;;0.40;;
12122;SDS011;6125;59.628;17.852;2024-01-16T03:07:34;0.20;;;0.20;;
12122;SDS011;6125;59.628;17.852;2024-01-16T03:10:01;0.20;;;0.20;;
12122;SDS011;6125;59.628;17.852;2024-01-16T03:12:28;0.50;;;0.30;;
12122;SDS011;6125;59.628;17.852;2024-01-16T03:14:56;0.40;;;0.40;;
12122;SDS011;6125;59.628;17.852;2024-01-16T03:17:24;0.20;;;0.20;;
12122;SDS011;6125;59.628;17.852;2024-01-16T03:19:51;0.37;;;0.37;;
12122;SDS011;6125;59.628;17.852;2024-01-16T03:22:18;0.47;;;0.30;;
12122;SDS011;6125;59.628;17.852;2024-01-16T03:24:48;1.77;;;0.63;;
12122;SDS011;6125;59.628;17.852;2024-01-16T03:27:15;0.47;;;0.10;;
12122;SDS011;6125;59.628;17.852;2024-01-16T03:29:43;0.10;;;0.10;;
12122;SDS011;6125;59.628;17.852;2024-01-16T03:32:10;0.10;;;0.10;;
12122;SDS011;6125;59.628;17.852;2024-01-16T03:34:39;0.40;;;0.30;;
12122;SDS011;6125;59.628;17.852;2024-01-16T03:37:12;0.23;;;0.23;;
12122;SDS011;6125;59.628;17.852;2024-01-16T03:39:38;0.57;;;0.53;;
12122;SDS011;6125;59.628;17.852;2024-01-16T03:42:06;0.93;;;0.77;;
12122;SDS011;6125;59.628;17.852;2024-01-16T03:44:33;0.30;;;0.30;;
12122;SDS011;6125;59.628;17.852;2024-01-16T03:47:05;0.20;;;0.20;;
12122;SDS011;6125;59.628;17.852;2024-01-16T03:49:32;0.77;;;0.47;;
12122;SDS011;6125;59.628;17.852;2024-01-16T03:52:01;0.80;;;0.40;;
12122;SDS011;6125;59.628;17.852;2024-01-16T03:54:28;0.30;;;0.23;;
12122;SDS011;6125;59.628;17.852;2024-01-16T03:56:55;0.37;;;0.30;;
12122;SDS011;6125;59.628;17.852;2024-01-16T03:59:23;1.70;;;0.60;;
12122;SDS011;6125;59.628;17.852;2024-01-16T04:01:50;1.17;;;0.20;;
12122;SDS011;6125;59.628;17.852;2024-01-16T04:04:18;0.30;;;0.30;;
12122;SDS011;6125;59.628;17.852;2024-01-16T04:06:45;0.20;;;0.20;;
12122;SDS011;6125;59.628;17.852;2024-01-16T04:09:14;0.10;;;0.10;;
12122;SDS011;6125;59.628;17.852;2024-01-16T04:11:41;0.20;;;0.20;;
12122;SDS011;6125;59.628;17.852;2024-01-16T04:14:08;0.20;;;0.20;;
12122;SDS011;6125;59.628;17.852;2024-01-16T04:16:36;1.50;;;0.30;;
12122;SDS011;6125;59.628;17.852;2024-01-16T04:19:03;0.97;;;0.73;;
12122;SDS011;6125;59.628;17.852;2024-01-16T04:21:30;0.00;;;0.00;;
12122;SDS011;6125;59.628;17.852;2024-01-16T04:23:57;0.00;;;0.00;;
12122;SDS011;6125;59.628;17.852;2024-01-16T04:26:26;0.27;;;0.27;;
12122;SDS011;6125;59.628;17.852;2024-01-16T04:28:53;0.87;;;0.27;;
12122;SDS011;6125;59.628;17.852;2024-01-16T04:31:20;1.23;;;0.50;;
12122;SDS011;6125;59.628;17.852;2024-01-16T04:33:47;0.10;;;0.10;;
12122;SDS011;6125;59.628;17.852;2024-01-16T04:36:14;0.10;;;0.10;;
12122;SDS011;6125;59.628;17.852;2024-01-16T04:38:42;0.37;;;0.20;;
12122;SDS011;6125;59.628;17.852;2024-01-16T04:41:09;0.50;;;0.50;;
12122;SDS011;6125;59.628;17.852;2024-01-16T04:43:37;0.50;;;0.20;;
12122;SDS011;6125;59.628;17.852;2024-01-16T04:46:04;0.50;;;0.27;;
12122;SDS011;6125;59.628;17.852;2024-01-16T04:48:38;0.30;;;0.30;;
12122;SDS011;6125;59.628;17.852;2024-01-16T04:51:05;2.03;;;0.70;;
12122;SDS011;6125;59.628;17.852;2024-01-16T04:53:33;0.00;;;0.00;;
12122;SDS011;6125;59.628;17.852;2024-01-16T04:56:01;0.57;;;0.40;;
12122;SDS011;6125;59.628;17.852;2024-01-16T04:58:28;0.77;;;0.77;;
12122;SDS011;6125;59.628;17.852;2024-01-16T05:00:57;1.23;;;0.47;;
12122;SDS011;6125;59.628;17.852;2024-01-16T05:03:24;0.10;;;0.10;;
12122;SDS011;6125;59.628;17.852;2024-01-16T05:05:51;1.77;;;0.20;;
12122;SDS011;6125;59.628;17.852;2024-01-16T05:08:18;1.83;;;0.30;;
12122;SDS011;6125;59.628;17.852;2024-01-16T05:10:46;0.00;;;0.00;;
12122;SDS011;6125;59.628;17.852;2024-01-16T05:13:13;0.10;;;0.10;;
12122;SDS011;6125;59.628;17.852;2024-01-16T05:15:40;0.30;;;0.20;;
12122;SDS011;6125;59.628;17.852;2024-01-16T05:18:08;0.77;;;0.50;;
12122;SDS011;6125;59.628;17.852;2024-01-16T05:20:36;0.50;;;0.20;;
12122;SDS011;6125;59.628;17.852;2024-01-16T05:23:03;11.60;;;3.07;;
12122;SDS011;6125;59.628;17.852;2024-01-16T05:25:31;5.13;;;1.70;;
12122;SDS011;6125;59.628;17.852;2024-01-16T05:27:58;1.13;;;0.63;;
12122;SDS011;6125;59.628;17.852;2024-01-16T05:30:25;0.20;;;0.17;;
12122;SDS011;6125;59.628;17.852;2024-01-16T05:32:53;0.53;;;0.20;;
12122;SDS011;6125;59.628;17.852;2024-01-16T05:35:21;0.37;;;0.37;;
12122;SDS011;6125;59.628;17.852;2024-01-16T05:37:49;0.30;;;0.30;;
12122;SDS011;6125;59.628;17.852;2024-01-16T05:40:16;0.60;;;0.53;;
12122;SDS011;6125;59.628;17.852;2024-01-16T05:42:43;0.10;;;0.10;;
12122;SDS011;6125;59.628;17.852;2024-01-16T05:45:11;1.00;;;0.77;;
12122;SDS011;6125;59.628;17.852;2024-01-16T05:47:38;1.03;;;0.20;;
12122;SDS011;6125;59.628;17.852;2024-01-16T05:50:06;0.07;;;0.07;;
12122;SDS011;6125;59.628;17.852;2024-01-16T05:52:35;0.10;;;0.10;;
12122;SDS011;6125;59.628;17.852;2024-01-16T05:55:03;0.50;;;0.40;;
12122;SDS011;6125;59.628;17.852;2024-01-16T05:57:31;0.97;;;0.53;;
12122;SDS011;6125;59.628;17.852;2024-01-16T05:59:58;0.77;;;0.53;;
12122;SDS011;6125;59.628;17.852;2024-01-16T06:02:27;1.47;;;0.33;;
12122;SDS011;6125;59.628;17.852;2024-01-16T06:04:55;0.43;;;0.20;;
12122;SDS011;6125;59.628;17.852;2024-01-16T06:07:22;3.00;;;0.70;;
12122;SDS011;6125;59.628;17.852;2024-01-16T06:09:50;0.77;;;0.33;;
12122;SDS011;6125;59.628;17.852;2024-01-16T06:12:18;1.53;;;0.60;;
12122;SDS011;6125;59.628;17.852;2024-01-16T06:14:45;1.33;;;0.70;;
12122;SDS011;6125;59.628;17.852;2024-01-16T06:17:12;0.30;;;0.27;;
12122;SDS011;6125;59.628;17.852;2024-01-16T06:19:39;0.27;;;0.20;;
12122;SDS011;6125;59.628;17.852;2024-01-16T06:22:06;0.90;;;0.30;;
12122;SDS011;6125;59.628;17.852;2024-01-16T06:24:35;0.20;;;0.20;;
12122;SDS011;6125;59.628;17.852;2024-01-16T06:27:05;0.20;;;0.20;;
12122;SDS011;6125;59.628;17.852;2024-01-16T06:29:32;0.93;;;0.30;;
12122;SDS011;6125;59.628;17.852;2024-01-16T06:31:59;0.40;;;0.17;;
12122;SDS011;6125;59.628;17.852;2024-01-16T06:34:27;0.20;;;0.20;;
12122;SDS011;6125;59.628;17.852;2024-01-16T06:36:54;0.40;;;0.40;;
12122;SDS011;6125;59.628;17.852;2024-01-16T06:39:21;2.33;;;0.57;;
12122;SDS011;6125;59.628;17.852;2024-01-16T06:41:48;1.20;;;0.33;;
12122;SDS011;6125;59.628;17.852;2024-01-16T06:44:17;0.30;;;0.30;;
12122;SDS011;6125;59.628;17.852;2024-01-16T06:46:45;0.40;;;0.30;;
12122;SDS011;6125;59.628;17.852;2024-01-16T06:49:12;0.40;;;0.40;;
12122;SDS011;6125;59.628;17.852;2024-01-16T06:51:39;0.47;;;0.47;;
12122;SDS011;6125;59.628;17.852;2024-01-16T06:54:06;0.50;;;0.40;;
12122;SDS011;6125;59.628;17.852;2024-01-16T06:56:33;1.93;;;0.60;;
12122;SDS011;6125;59.628;17.852;2024-01-16T06:59:01;0.87;;;0.63;;
12122;SDS011;6125;59.628;17.852;2024-01-16T07:01:29;0.30;;;0.30;;
12122;SDS011;6125;59.628;17.852;2024-01-16T07:03:56;1.30;;;0.80;;
12122;SDS011;6125;59.628;17.852;2024-01-16T07:06:24;0.73;;;0.50;;
12122;SDS011;6125;59.628;17.852;2024-01-16T07:08:51;2.50;;;0.50;;
12122;SDS011;6125;59.628;17.852;2024-01-16T07:11:18;0.37;;;0.37;;
12122;SDS011;6125;59.628;17.852;2024-01-16T07:13:46;0.40;;;0.40;;
12122;SDS011;6125;59.628;17.852;2024-01-16T07:16:13;0.53;;;0.53;;
12122;SDS011;6125;59.628;17.852;2024-01-16T07:18:41;0.63;;;0.57;;
12122;SDS011;6125;59.628;17.852;2024-01-16T07:21:18;0.37;;;0.37;;
12122;SDS011;6125;59.628;17.852;2024-01-16T07:23:46;0.60;;;0.60;;
12122;SDS011;6125;59.628;17.852;2024-01-16T07:26:13;0.37;;;0.33;;
12122;SDS011;6125;59.628;17.852;2024-01-16T07:28:41;2.53;;;0.80;;
12122;SDS011;6125;59.628;17.852;2024-01-16T07:31:09;0.83;;;0.43;;
12122;SDS011;6125;59.628;17.852;2024-01-16T07:33:36;2.13;;;0.87;;
12122;SDS011;6125;59.628;17.852;2024-01-16T07:36:05;0.53;;;0.53;;
12122;SDS011;6125;59.628;17.852;2024-01-16T07:38:34;0.97;;;0.90;;
12122;SDS011;6125;59.628;17.852;2024-01-16T07:41:02;1.03;;;0.63;;
12122;SDS011;6125;59.628;17.852;2024-01-16T07:43:30;1.03;;;0.90;;
12122;SDS011;6125;59.628;17.852;2024-01-16T07:45:57;1.63;;;1.03;;
12122;SDS011;6125;59.628;17.852;2024-01-16T07:48:24;2.33;;;0.63;;
12122;SDS011;6125;59.628;17.852;2024-01-16T07:50:52;0.70;;;0.70;;
12122;SDS011;6125;59.628;17.852;2024-01-16T07:53:20;1.17;;;0.70;;
12122;SDS011;6125;59.628;17.852;2024-01-16T07:55:47;0.60;;;0.60;;
12122;SDS011;6125;59.628;17.852;2024-01-16T07:58:15;3.70;;;1.30;;
12122;SDS011;6125;59.628;17.852;2024-01-16T08:00:42;1.87;;;1.10;;
12122;SDS011;6125;59.628;17.852;2024-01-16T08:03:09;0.80;;;0.80;;
12122;SDS011;6125;59.628;17.852;2024-01-16T08:05:37;0.63;;;0.60;;
12122;SDS011;6125;59.628;17.852;2024-01-16T08:08:04;0.80;;;0.77;;
12122;SDS011;6125;59.628;17.852;2024-01-16T08:10:36;0.30;;;0.30;;
12122;SDS011;6125;59.628;17.852;2024-01-16T08:13:03;1.40;;;0.70;;
12122;SDS011;6125;59.628;17.852;2024-01-16T08:15:30;0.70;;;0.60;;
12122;SDS011;6125;59.628;17.852;2024-01-16T08:17:57;0.57;;;0.53;;
12122;SDS011;6125;59.628;17.852;2024-01-16T08:20:25;2.10;;;0.93;;
12122;SDS011;6125;59.628;17.852;2024-01-16T08:22:52;0.60;;;0.60;;
12122;SDS011;6125;59.628;17.852;2024-01-16T08:25:20;0.80;;;0.80;;
12122;SDS011;6125;59.628;17.852;2024-01-16T08:27:48;3.00;;;0.80;;
12122;SDS011;6125;59.628;17.852;2024-01-16T08:30:15;0.93;;;0.80;;
12122;SDS011;6125;59.628;17.852;2024-01-16T08:32:43;2.17;;;1.53;;
12122;SDS011;6125;59.628;17.852;2024-01-16T08:35:10;0.83;;;0.60;;
12122;SDS011;6125;59.628;17.852;2024-01-16T08:37:37;1.17;;;0.80;;
12122;SDS011;6125;59.628;17.852;2024-01-16T08:40:05;0.90;;;0.90;;
12122;SDS011;6125;59.628;17.852;2024-01-16T08:42:33;1.83;;;1.10;;
12122;SDS011;6125;59.628;17.852;2024-01-16T08:45:02;5.20;;;1.33;;
12122;SDS011;6125;59.628;17.852;2024-01-16T08:47:30;1.67;;;1.10;;
12122;SDS011;6125;59.628;17.852;2024-01-16T08:49:57;1.27;;;1.03;;
12122;SDS011;6125;59.628;17.852;2024-01-16T08:52:24;3.00;;;1.27;;
12122;SDS011;6125;59.628;17.852;2024-01-16T08:54:52;3.53;;;1.00;;
12122;SDS011;6125;59.628;17.852;2024-01-16T08:57:19;2.03;;;0.73;;
12122;SDS011;6125;59.628;17.852;2024-01-16T08:59:46;0.57;;;0.57;;
12122;SDS011;6125;59.628;17.852;2024-01-16T09:02:14;1.30;;;1.07;;
12122;SDS011;6125;59.628;17.852;2024-01-16T09:04:42;0.50;;;0.50;;
12122;SDS011;6125;59.628;17.852;2024-01-16T09:07:09;0.87;;;0.80;;
12122;SDS011;6125;59.628;17.852;2024-01-16T09:09:40;2.03;;;1.20;;
12122;SDS011;6125;59.628;17.852;2024-01-16T09:12:08;1.53;;;0.70;;
12122;SDS011;6125;59.628;17.852;2024-01-16T09:14:35;0.40;;;0.40;;
12122;SDS011;6125;59.628;17.852;2024-01-16T09:17:02;0.77;;;0.77;;
12122;SDS011;6125;59.628;17.852;2024-01-16T09:19:31;1.43;;;0.70;;
12122;SDS011;6125;59.628;17.852;2024-01-16T09:21:58;0.93;;;0.73;;
12122;SDS011;6125;59.628;17.852;2024-01-16T09:24:26;1.33;;;0.70;;
12122;SDS011;6125;59.628;17.852;2024-01-16T09:26:53;0.90;;;0.70;;
12122;SDS011;6125;59.628;17.852;2024-01-16T09:29:20;0.83;;;0.47;;
12122;SDS011;6125;59.628;17.852;2024-01-16T09:31:48;2.17;;;0.80;;
12122;SDS011;6125;59.628;17.852;2024-01-16T09:34:15;0.70;;;0.60;;
12122;SDS011;6125;59.628;17.852;2024-01-16T09:36:43;2.23;;;1.13;;
12122;SDS011;6125;59.628;17.852;2024-01-16T09:39:11;1.03;;;0.90;;
12122;SDS011;6125;59.628;17.852;2024-01-16T09:41:39;1.03;;;0.70;;
12122;SDS011;6125;59.628;17.852;2024-01-16T09:44:07;2.37;;;1.20;;
12122;SDS011;6125;59.628;17.852;2024-01-16T09:46:36;1.90;;;0.60;;
12122;SDS011;6125;59.628;17.852;2024-01-16T09:49:05;1.73;;;0.83;;
12122;SDS011;6125;59.628;17.852;2024-01-16T09:51:33;1.57;;;1.23;;
12122;SDS011;6125;59.628;17.852;2024-01-16T09:54:01;2.07;;;0.73;;
12122;SDS011;6125;59.628;17.852;2024-01-16T09:56:33;0.80;;;0.80;;
12122;SDS011;6125;59.628;17.852;2024-01-16T09:59:05;4.57;;;0.87;;
12122;SDS011;6125;59.628;17.852;2024-01-16T10:01:35;1.50;;;0.90;;
12122;SDS011;6125;59.628;17.852;2024-01-16T10:04:04;1.07;;;0.80;;
12122;SDS011;6125;59.628;17.852;2024-01-16T10:06:31;1.20;;;0.70;;
12122;SDS011;6125;59.628;17.852;2024-01-16T10:09:02;1.50;;;0.90;;
12122;SDS011;6125;59.628;17.852;2024-01-16T10:11:31;1.97;;;0.83;;
12122;SDS011;6125;59.628;17.852;2024-01-16T10:14:00;3.17;;;0.83;;
12122;SDS011;6125;59.628;17.852;2024-01-16T10:19:23;1.27;;;0.70;;
12122;SDS011;6125;59.628;17.852;2024-01-16T10:21:50;2.47;;;0.70;;
12122;SDS011;6125;59.628;17.852;2024-01-16T10:24:19;0.73;;;0.70;;
12122;SDS011;6125;59.628;17.852;2024-01-16T10:26:49;4.47;;;1.57;;
12122;SDS011;6125;59.628;17.852;2024-01-16T10:29:25;4.07;;;1.00;;
12122;SDS011;6125;59.628;17.852;2024-01-16T10:31:52;1.53;;;0.90;;
12122;SDS011;6125;59.628;17.852;2024-01-16T10:34:20;3.30;;;0.80;;
12122;SDS011;6125;59.628;17.852;2024-01-16T10:36:48;2.60;;;0.90;;
12122;SDS011;6125;59.628;17.852;2024-01-16T10:39:16;0.60;;;0.60;;
12122;SDS011;6125;59.628;17.852;2024-01-16T10:41:48;2.57;;;0.90;;
12122;SDS011;6125;59.628;17.852;2024-01-16T10:44:21;1.90;;;1.10;;
12122;SDS011;6125;59.628;17.852;2024-01-16T10:46:48;0.90;;;0.63;;
12122;SDS011;6125;59.628;17.852;2024-01-16T10:49:16;2.30;;;0.83;;
12122;SDS011;6125;59.628;17.852;2024-01-16T10:51:43;4.63;;;0.97;;
12122;SDS011;6125;59.628;17.852;2024-01-16T10:54:12;1.47;;;0.93;;
12122;SDS011;6125;59.628;17.852;2024-01-16T10:56:42;1.07;;;0.90;;
12122;SDS011;6125;59.628;17.852;2024-01-16T10:59:15;1.53;;;0.77;;
12122;SDS011;6125;59.628;17.852;2024-01-16T11:01:45;1.00;;;0.60;;
12122;SDS011;6125;59.628;17.852;2024-01-16T11:04:14;7.77;;;0.90;;
12122;SDS011;6125;59.628;17.852;2024-01-16T11:06:42;2.73;;;1.50;;
12122;SDS011;6125;59.628;17.852;2024-01-16T11:09:10;3.00;;;0.93;;
12122;SDS011;6125;59.628;17.852;2024-01-16T11:11:40;2.33;;;1.20;;
12122;SDS011;6125;59.628;17.852;2024-01-16T11:14:10;0.70;;;0.70;;
12122;SDS011;6125;59.628;17.852;2024-01-16T11:16:41;1.40;;;0.87;;
12122;SDS011;6125;59.628;17.852;2024-01-16T11:19:09;1.87;;;0.83;;
12122;SDS011;6125;59.628;17.852;2024-01-16T11:21:37;1.00;;;0.90;;
12122;SDS011;6125;59.628;17.852;2024-01-16T11:24:06;2.20;;;0.90;;
12122;SDS011;6125;59.628;17.852;2024-01-16T11:26:33;2.37;;;1.00;;
12122;SDS011;6125;59.628;17.852;2024-01-16T11:32:04;1.30;;;1.13;;
12122;SDS011;6125;59.628;17.852;2024-01-16T11:37:26;1.97;;;1.23;;
12122;SDS011;6125;59.628;17.852;2024-01-16T11:42:52;2.30;;;1.20;;
12122;SDS011;6125;59.628;17.852;2024-01-16T11:45:48;1.13;;;0.90;;
12122;SDS011;6125;59.628;17.852;2024-01-16T11:48:18;0.63;;;0.63;;
12122;SDS011;6125;59.628;17.852;2024-01-16T11:50:46;0.83;;;0.67;;
12122;SDS011;6125;59.628;17.852;2024-01-16T11:53:32;0.60;;;0.60;;
12122;SDS011;6125;59.628;17.852;2024-01-16T11:59:08;0.90;;;0.90;;
12122;SDS011;6125;59.628;17.852;2024-01-16T12:01:52;1.07;;;0.80;;
12122;SDS011;6125;59.628;17.852;2024-01-16T12:04:25;0.90;;;0.70;;
12122;SDS011;6125;59.628;17.852;2024-01-16T12:06:59;1.57;;;1.03;;
12122;SDS011;6125;59.628;17.852;2024-01-16T12:09:27;0.70;;;0.70;;
12122;SDS011;6125;59.628;17.852;2024-01-16T12:11:59;1.20;;;0.90;;
12122;SDS011;6125;59.628;17.852;2024-01-16T12:14:27;1.10;;;0.97;;
12122;SDS011;6125;59.628;17.852;2024-01-16T12:17:07;0.87;;;0.80;;
12122;SDS011;6125;59.628;17.852;2024-01-16T12:19:37;0.77;;;0.63;;
12122;SDS011;6125;59.628;17.852;2024-01-16T12:22:08;0.53;;;0.53;;
12122;SDS011;6125;59.628;17.852;2024-01-16T12:24:36;0.70;;;0.67;;
12122;SDS011;6125;59.628;17.852;2024-01-16T12:27:03;0.83;;;0.47;;
12122;SDS011;6125;59.628;17.852;2024-01-16T12:29:31;0.77;;;0.60;;
12122;SDS011;6125;59.628;17.852;2024-01-16T12:32:05;0.60;;;0.43;;
12122;SDS011;6125;59.628;17.852;2024-01-16T12:34:34;0.50;;;0.50;;
12122;SDS011;6125;59.628;17.852;2024-01-16T12:37:06;1.27;;;0.90;;
12122;SDS011;6125;59.628;17.852;2024-01-16T12:39:33;0.80;;;0.50;;
12122;SDS011;6125;59.628;17.852;2024-01-16T12:42:01;1.13;;;0.53;;
12122;SDS011;6125;59.628;17.852;2024-01-16T12:44:29;1.63;;;0.97;;
12122;SDS011;6125;59.628;17.852;2024-01-16T12:46:56;2.03;;;0.77;;
12122;SDS011;6125;59.628;17.852;2024-01-16T12:49:27;0.63;;;0.40;;
12122;SDS011;6125;59.628;17.852;2024-01-16T12:54:58;1.33;;;0.80;;
12122;SDS011;6125;59.628;17.852;2024-01-16T12:57:26;0.60;;;0.60;;
12122;SDS011;6125;59.628;17.852;2024-01-16T12:59:53;0.60;;;0.60;;
12122;SDS011;6125;59.628;17.852;2024-01-16T13:02:22;0.60;;;0.60;;
12122;SDS011;6125;59.628;17.852;2024-01-16T13:04:57;0.60;;;0.40;;
12122;SDS011;6125;59.628;17.852;2024-01-16T13:07:26;1.60;;;0.80;;
12122;SDS011;6125;59.628;17.852;2024-01-16T13:10:08;2.17;;;0.90;;
12122;SDS011;6125;59.628;17.852;2024-01-16T13:12:37;2.17;;;0.73;;
12122;SDS011;6125;59.628;17.852;2024-01-16T13:15:04;3.27;;;0.70;;
12122;SDS011;6125;59.628;17.852;2024-01-16T13:17:32;1.20;;;0.90;;
12122;SDS011;6125;59.628;17.852;2024-01-16T13:20:00;0.80;;;0.80;;
12122;SDS011;6125;59.628;17.852;2024-01-16T13:22:30;2.03;;;0.90;;
12122;SDS011;6125;59.628;17.852;2024-01-16T13:24:57;1.23;;;0.93;;
12122;SDS011;6125;59.628;17.852;2024-01-16T13:27:24;1.67;;;0.80;;
12122;SDS011;6125;59.628;17.852;2024-01-16T13:29:52;1.43;;;0.80;;
12122;SDS011;6125;59.628;17.852;2024-01-16T13:32:19;1.17;;;0.70;;
12122;SDS011;6125;59.628;17.852;2024-01-16T13:34:46;1.63;;;0.63;;
12122;SDS011;6125;59.628;17.852;2024-01-16T13:37:17;1.60;;;0.90;;
12122;SDS011;6125;59.628;17.852;2024-01-16T13:39:49;1.20;;;0.80;;
12122;SDS011;6125;59.628;17.852;2024-01-16T13:42:16;1.53;;;0.60;;
12122;SDS011;6125;59.628;17.852;2024-01-16T13:44:45;1.20;;;0.73;;
12122;SDS011;6125;59.628;17.852;2024-01-16T13:47:13;2.73;;;1.07;;
12122;SDS011;6125;59.628;17.852;2024-01-16T13:49:44;2.47;;;1.30;;
12122;SDS011;6125;59.628;17.852;2024-01-16T13:52:11;6.63;;;2.80;;
12122;SDS011;6125;59.628;17.852;2024-01-16T13:54:38;7.20;;;2.63;;
12122;SDS011;6125;59.628;17.852;2024-01-16T13:57:08;5.50;;;2.63;;
12122;SDS011;6125;59.628;17.852;2024-01-16T13:59:35;4.27;;;1.80;;
12122;SDS011;6125;59.628;17.852;2024-01-16T14:02:03;8.07;;;2.47;;
12122;SDS011;6125;59.628;17.852;2024-01-16T14:04:31;3.10;;;1.97;;
12122;SDS011;6125;59.628;17.852;2024-01-16T14:06:59;5.67;;;2.37;;
12122;SDS011;6125;59.628;17.852;2024-01-16T14:09:26;3.70;;;1.60;;
12122;SDS011;6125;59.628;17.852;2024-01-16T14:11:54;6.70;;;1.90;;
12122;SDS011;6125;59.628;17.852;2024-01-16T14:14:23;1.63;;;1.10;;
12122;SDS011;6125;59.628;17.852;2024-01-16T14:16:58;1.73;;;1.20;;
12122;SDS011;6125;59.628;17.852;2024-01-16T14:19:25;2.13;;;1.27;;
12122;SDS011;6125;59.628;17.852;2024-01-16T14:21:55;1.10;;;0.93;;
12122;SDS011;6125;59.628;17.852;2024-01-16T14:24:22;4.83;;;1.10;;
12122;SDS011;6125;59.628;17.852;2024-01-16T14:26:49;1.83;;;1.00;;
12122;SDS011;6125;59.628;17.852;2024-01-16T14:29:16;1.50;;;0.97;;
12122;SDS011;6125;59.628;17.852;2024-01-16T14:31:45;3.00;;;0.87;;
12122;SDS011;6125;59.628;17.852;2024-01-16T14:34:13;4.03;;;0.90;;
12122;SDS011;6125;59.628;17.852;2024-01-16T14:36:41;4.57;;;1.10;;
12122;SDS011;6125;59.628;17.852;2024-01-16T14:39:08;1.47;;;1.00;;
12122;SDS011;6125;59.628;17.852;2024-01-16T14:41:38;2.70;;;0.93;;
12122;SDS011;6125;59.628;17.852;2024-01-16T14:44:07;1.23;;;1.00;;
12122;SDS011;6125;59.628;17.852;2024-01-16T14:46:35;5.77;;;4.47;;
12122;SDS011;6125;59.628;17.852;2024-01-16T14:49:04;2.10;;;1.53;;
12122;SDS011;6125;59.628;17.852;2024-01-16T14:51:31;2.13;;;1.30;;
12122;SDS011;6125;59.628;17.852;2024-01-16T14:53:58;2.43;;;1.10;;
12122;SDS011;6125;59.628;17.852;2024-01-16T14:56:27;1.63;;;1.20;;
12122;SDS011;6125;59.628;17.852;2024-01-16T14:58:55;1.20;;;0.90;;
12122;SDS011;6125;59.628;17.852;2024-01-16T15:01:22;1.80;;;1.10;;
12122;SDS011;6125;59.628;17.852;2024-01-16T15:03:49;2.73;;;1.30;;
12122;SDS011;6125;59.628;17.852;2024-01-16T15:06:18;1.00;;;0.90;;
12122;SDS011;6125;59.628;17.852;2024-01-16T15:08:45;1.07;;;1.00;;
12122;SDS011;6125;59.628;17.852;2024-01-16T15:11:13;4.10;;;1.07;;
12122;SDS011;6125;59.628;17.852;2024-01-16T15:13:42;2.57;;;1.30;;
12122;SDS011;6125;59.628;17.852;2024-01-16T15:16:10;1.83;;;1.40;;